Flight Track Log - Related Links

Times and Time Zones

All times are in EDT time to prevent confusion due to time zone crossing. See the N662US flight status page for this flight to view local times or setup timezone preferences in your user account.

Time Position Orientation Groundspeed Altitude Reporting Facility
EDT Latitude Longitude Course Direction KTS MPH feet Rate Location/Type
Thu 08:02:00 PM 14.5992 121.0869 36° Northeast  Level Estimated
Thu 08:03:00 PM 14.6897 121.1543 36° Northeast  Level Estimated
Thu 08:04:00 PM 14.7802 121.2217 36° Northeast  Level Estimated
Thu 08:05:00 PM 14.8707 121.2892 36° Northeast  Level Estimated
Thu 08:06:00 PM 14.9612 121.3567 36° Northeast  Level Estimated
Thu 08:07:00 PM 15.0516 121.4243 36° Northeast  Level Estimated
Thu 08:08:00 PM 15.1420 121.4920 36° Northeast  Level Estimated
Thu 08:09:00 PM 15.2324 121.5597 36° Northeast  Level Estimated
Thu 08:10:00 PM 15.3228 121.6274 36° Northeast  Level Estimated
Thu 08:11:00 PM 15.4131 121.6953 36° Northeast  Level Estimated
Thu 08:12:00 PM 15.5035 121.7632 36° Northeast  Level Estimated
Thu 08:13:00 PM 15.5938 121.8311 36° Northeast  Level Estimated
Thu 08:14:00 PM 15.6841 121.8991 36° Northeast  Level Estimated
Thu 08:15:00 PM 15.7744 121.9672 36° Northeast  Level Estimated
Thu 08:16:00 PM 15.8646 122.0353 36° Northeast  Level Estimated
Thu 08:17:00 PM 15.9549 122.1035 36° Northeast  Level Estimated
Thu 08:18:00 PM 16.0451 122.1718 36° Northeast  Level Estimated
Thu 08:19:00 PM 16.1353 122.2401 36° Northeast  Level Estimated
Thu 08:20:00 PM 16.2255 122.3084 36° Northeast  Level Estimated
Thu 08:21:00 PM 16.3156 122.3769 36° Northeast  Level Estimated
Thu 08:22:00 PM 16.4058 122.4454 36° Northeast  Level Estimated
Thu 08:23:00 PM 16.4959 122.5139 36° Northeast  Level Estimated
Thu 08:24:00 PM 16.5859 122.5826 36° Northeast  Level Estimated
Thu 08:25:00 PM 16.6760 122.6513 36° Northeast  Level Estimated
Thu 08:26:00 PM 16.7660 122.7200 36° Northeast  Level Estimated
Thu 08:27:00 PM 16.8561 122.7888 36° Northeast  Level Estimated
Thu 08:28:00 PM 16.9461 122.8577 36° Northeast  Level Estimated
Thu 08:29:00 PM 17.0360 122.9267 36° Northeast  Level Estimated
Thu 08:30:00 PM 17.1260 122.9957 36° Northeast  Level Estimated
Thu 08:31:00 PM 17.2159 123.0648 36° Northeast  Level Estimated
Thu 08:32:00 PM 17.3058 123.1339 36° Northeast  Level Estimated
Thu 08:33:00 PM 17.3957 123.2032 36° Northeast  Level Estimated
Thu 08:34:00 PM 17.4855 123.2725 36° Northeast  Level Estimated
Thu 08:35:00 PM 17.5753 123.3418 36° Northeast  Level Estimated
Thu 08:36:00 PM 17.6651 123.4112 36° Northeast  Level Estimated
Thu 08:37:00 PM 17.7549 123.4807 36° Northeast  Level Estimated
Thu 08:38:00 PM 17.8447 123.5503 36° Northeast  Level Estimated
Thu 08:39:00 PM 17.9344 123.6199 36° Northeast  Level Estimated
Thu 08:40:00 PM 18.0241 123.6896 36° Northeast  Level Estimated
Thu 08:41:00 PM 18.1138 123.7594 36° Northeast  Level Estimated
Thu 08:42:00 PM 18.2034 123.8293 37° Northeast  Level Estimated
Thu 08:43:00 PM 18.3028 123.9068 37° Northeast  Level Estimated
Thu 08:44:00 PM 18.4021 123.9843 37° Northeast  Level Estimated
Thu 08:45:00 PM 18.5013 124.0620 37° Northeast  Level Estimated
Thu 08:46:00 PM 18.6005 124.1397 37° Northeast  Level Estimated
Thu 08:47:00 PM 18.6997 124.2176 37° Northeast  Level Estimated
Thu 08:48:00 PM 18.7989 124.2955 37° Northeast  Level Estimated
Thu 08:49:00 PM 18.8980 124.3735 37° Northeast  Level Estimated
Thu 08:50:00 PM 18.9971 124.4517 37° Northeast  Level Estimated
Thu 08:51:00 PM 19.0961 124.5299 37° Northeast  Level Estimated
Thu 08:52:00 PM 19.1952 124.6082 37° Northeast  Level Estimated
Thu 08:53:00 PM 19.2942 124.6866 37° Northeast  Level Estimated
Thu 08:54:00 PM 19.3931 124.7651 37° Northeast  Level Estimated
Thu 08:55:00 PM 19.4921 124.8436 37° Northeast  Level Estimated
Thu 08:56:00 PM 19.5910 124.9223 37° Northeast  Level Estimated
Thu 08:57:00 PM 19.6898 125.0011 37° Northeast  Level Estimated
Thu 08:58:00 PM 19.7886 125.0800 37° Northeast  Level Estimated
Thu 08:59:00 PM 19.8874 125.1590 37° Northeast  Level Estimated
Thu 09:00:00 PM 19.9862 125.2381 37° Northeast  Level Estimated
Thu 09:01:00 PM 20.0849 125.3172 37° Northeast  Level Estimated
Thu 09:02:00 PM 20.1836 125.3965 37° Northeast  Level Estimated
Thu 09:03:00 PM 20.2822 125.4759 37° Northeast  Level Estimated
Thu 09:04:00 PM 20.3809 125.5554 37° Northeast  Level Estimated
Thu 09:05:00 PM 20.4794 125.6349 37° Northeast  Level Estimated
Thu 09:06:00 PM 20.5780 125.7146 37° Northeast  Level Estimated
Thu 09:07:00 PM 20.6765 125.7944 37° Northeast  Level Estimated
Thu 09:08:00 PM 20.7750 125.8743 37° Northeast  Level Estimated
Thu 09:09:00 PM 20.8734 125.9543 37° Northeast  Level Estimated
Thu 09:10:00 PM 20.9718 126.0344 37° Northeast  Level Estimated
Thu 09:11:00 PM 21.0701 126.1146 37° Northeast  Level Estimated
Thu 09:12:00 PM 21.1685 126.1949 37° Northeast  Level Estimated
Thu 09:13:00 PM 21.2667 126.2753 37° Northeast  Level Estimated
Thu 09:14:00 PM 21.3650 126.3558 37° Northeast  Level Estimated
Thu 09:15:00 PM 21.4632 126.4364 37° Northeast  Level Estimated
Thu 09:16:00 PM 21.5613 126.5172 37° Northeast  Level Estimated
Thu 09:17:00 PM 21.6595 126.5980 37° Northeast  Level Estimated
Thu 09:18:00 PM 21.7576 126.6790 37° Northeast  Level Estimated
Thu 09:19:00 PM 21.8556 126.7601 37° Northeast  Level Estimated
Thu 09:20:00 PM 21.9536 126.8412 38° Northeast  Level Estimated
Thu 09:21:00 PM 22.0516 126.9225 38° Northeast  Level Estimated
Thu 09:22:00 PM 22.1495 127.0039 38° Northeast  Level Estimated
Thu 09:23:00 PM 22.2474 127.0854 38° Northeast  Level Estimated
Thu 09:24:00 PM 22.3453 127.1671 38° Northeast  Level Estimated
Thu 09:25:00 PM 22.4431 127.2488 38° Northeast  Level Estimated
Thu 09:26:00 PM 22.5408 127.3307 38° Northeast  Level Estimated
Thu 09:27:00 PM 22.6386 127.4127 38° Northeast  Level Estimated
Thu 09:28:00 PM 22.7362 127.4948 38° Northeast  Level Estimated
Thu 09:29:00 PM 22.8339 127.5770 38° Northeast  Level Estimated
Thu 09:30:00 PM 22.9315 127.6593 38° Northeast  Level Estimated
Thu 09:31:00 PM 23.0290 127.7418 38° Northeast  Level Estimated
Thu 09:32:00 PM 23.1265 127.8243 38° Northeast  Level Estimated
Thu 09:33:00 PM 23.2240 127.9070 38° Northeast  Level Estimated
Thu 09:34:00 PM 23.3214 127.9898 38° Northeast  Level Estimated
Thu 09:35:00 PM 23.4188 128.0728 38° Northeast  Level Estimated
Thu 09:36:00 PM 23.5162 128.1558 38° Northeast  Level Estimated
Thu 09:37:00 PM 23.6134 128.2390 38° Northeast  Level Estimated
Thu 09:38:00 PM 23.7107 128.3223 38° Northeast  Level Estimated
Thu 09:39:00 PM 23.8079 128.4057 38° Northeast  Level Estimated
Thu 09:40:00 PM 23.9051 128.4892 38° Northeast  Level Estimated
Thu 09:41:00 PM 24.0022 128.5729 38° Northeast  Level Estimated
Thu 09:42:00 PM 24.0993 128.6567 38° Northeast  Level Estimated
Thu 09:43:00 PM 24.1963 128.7406 38° Northeast  Level Estimated
Thu 09:44:00 PM 24.2933 128.8247 38° Northeast  Level Estimated
Thu 09:45:00 PM 24.3902 128.9089 38° Northeast  Level Estimated
Thu 09:46:00 PM 24.4871 128.9932 38° Northeast  Level Estimated
Thu 09:47:00 PM 24.5839 129.0776 38° Northeast  Level Estimated
Thu 09:48:00 PM 24.6807 129.1622 38° Northeast  Level Estimated
Thu 09:49:00 PM 24.7774 129.2469 38° Northeast  Level Estimated
Thu 09:50:00 PM 24.8741 129.3317 39° Northeast  Level Estimated
Thu 09:51:00 PM 24.9708 129.4167 39° Northeast  Level Estimated
Thu 09:52:00 PM 25.0674 129.5018 39° Northeast  Level Estimated
Thu 09:53:00 PM 25.1639 129.5871 39° Northeast  Level Estimated
Thu 09:54:00 PM 25.2604 129.6724 39° Northeast  Level Estimated
Thu 09:55:00 PM 25.3569 129.7579 39° Northeast  Level Estimated
Thu 09:56:00 PM 25.4533 129.8436 39° Northeast  Level Estimated
Thu 09:57:00 PM 25.5496 129.9294 39° Northeast  Level Estimated
Thu 09:58:00 PM 25.6459 130.0153 39° Northeast  Level Estimated
Thu 09:59:00 PM 25.7422 130.1013 39° Northeast  Level Estimated
Thu 10:00:00 PM 25.8384 130.1875 39° Northeast  Level Estimated
Thu 10:01:00 PM 25.9345 130.2739 39° Northeast  Level Estimated
Thu 10:02:00 PM 26.0306 130.3604 39° Northeast  Level Estimated
Thu 10:03:00 PM 26.1267 130.4470 39° Northeast  Level Estimated
Thu 10:04:00 PM 26.2227 130.5337 39° Northeast  Level Estimated
Thu 10:05:00 PM 26.3186 130.6206 39° Northeast  Level Estimated
Thu 10:06:00 PM 26.4145 130.7077 39° Northeast  Level Estimated
Thu 10:07:00 PM 26.5104 130.7949 39° Northeast  Level Estimated
Thu 10:08:00 PM 26.6061 130.8822 39° Northeast  Level Estimated
Thu 10:09:00 PM 26.7019 130.9697 39° Northeast  Level Estimated
Thu 10:10:00 PM 26.7976 131.0573 39° Northeast  Level Estimated
Thu 10:11:00 PM 26.8932 131.1451 39° Northeast  Level Estimated
Thu 10:12:00 PM 26.9888 131.2331 39° Northeast  Level Estimated
Thu 10:13:00 PM 27.0843 131.3211 39° Northeast  Level Estimated
Thu 10:14:00 PM 27.1797 131.4094 39° Northeast  Level Estimated
Thu 10:15:00 PM 27.2752 131.4978 39° Northeast  Level Estimated
Thu 10:16:00 PM 27.3705 131.5863 39° Northeast  Level Estimated
Thu 10:17:00 PM 27.4658 131.6750 40° Northeast  Level Estimated
Thu 10:18:00 PM 27.5610 131.7638 40° Northeast  Level Estimated
Thu 10:19:00 PM 27.6562 131.8528 40° Northeast  Level Estimated
Thu 10:20:00 PM 27.7513 131.9420 40° Northeast  Level Estimated
Thu 10:21:00 PM 27.8464 132.0313 40° Northeast  Level Estimated
Thu 10:22:00 PM 27.9414 132.1207 40° Northeast  Level Estimated
Thu 10:23:00 PM 28.0364 132.2103 40° Northeast  Level Estimated
Thu 10:24:00 PM 28.1313 132.3001 40° Northeast  Level Estimated
Thu 10:25:00 PM 28.2261 132.3901 40° Northeast  Level Estimated
Thu 10:26:00 PM 28.3209 132.4802 40° Northeast  Level Estimated
Thu 10:27:00 PM 28.4156 132.5704 40° Northeast  Level Estimated
Thu 10:28:00 PM 28.5102 132.6608 40° Northeast  Level Estimated
Thu 10:29:00 PM 28.6057 132.7522 40° Northeast  Level Estimated
Thu 10:30:00 PM 28.7011 132.8438 40° Northeast  Level Estimated
Thu 10:31:00 PM 28.7964 132.9356 40° Northeast  Level Estimated
Thu 10:32:00 PM 28.8917 133.0275 40° Northeast  Level Estimated
Thu 10:33:00 PM 28.9869 133.1196 40° Northeast  Level Estimated
Thu 10:34:00 PM 29.0821 133.2118 40° Northeast  Level Estimated
Thu 10:35:00 PM 29.1771 133.3042 40° Northeast  Level Estimated
Thu 10:36:00 PM 29.2722 133.3968 40° Northeast  Level Estimated
Thu 10:37:00 PM 29.3671 133.4896 40° Northeast  Level Estimated
Thu 10:38:00 PM 29.4620 133.5825 40° Northeast  Level Estimated
Thu 10:39:00 PM 29.5568 133.6756 40° Northeast  Level Estimated
Thu 10:40:00 PM 29.6516 133.7689 41° Northeast  Level Estimated
Thu 10:41:00 PM 29.7463 133.8624 41° Northeast  Level Estimated
Thu 10:42:00 PM 29.8409 133.9560 41° Northeast  Level Estimated
Thu 10:43:00 PM 29.9355 134.0498 41° Northeast  Level Estimated
Thu 10:44:00 PM 30.0300 134.1438 41° Northeast  Level Estimated
Thu 10:45:00 PM 30.1244 134.2379 41° Northeast  Level Estimated
Thu 10:46:00 PM 30.2188 134.3323 41° Northeast  Level Estimated
Thu 10:47:00 PM 30.3131 134.4268 41° Northeast  Level Estimated
Thu 10:48:00 PM 30.4073 134.5215 41° Northeast  Level Estimated
Thu 10:49:00 PM 30.5015 134.6164 41° Northeast  Level Estimated
Thu 10:50:00 PM 30.5956 134.7115 41° Northeast  Level Estimated
Thu 10:51:00 PM 30.6896 134.8068 41° Northeast  Level Estimated
Thu 10:52:00 PM 30.7835 134.9022 41° Northeast  Level Estimated
Thu 10:53:00 PM 30.8774 134.9979 41° Northeast  Level Estimated
Thu 10:54:00 PM 30.9712 135.0937 41° Northeast  Level Estimated
Thu 10:55:00 PM 31.0650 135.1897 41° Northeast  Level Estimated
Thu 10:56:00 PM 31.1586 135.2859 41° Northeast  Level Estimated
Thu 10:57:00 PM 31.2522 135.3823 41° Northeast  Level Estimated
Thu 10:58:00 PM 31.3458 135.4789 41° Northeast  Level Estimated
Thu 10:59:00 PM 31.4392 135.5757 41° Northeast  Level Estimated
Thu 11:00:00 PM 31.5326 135.6726 42° Northeast  Level Estimated
Thu 11:01:00 PM 31.6259 135.7698 42° Northeast  Level Estimated
Thu 11:02:00 PM 31.7191 135.8671 42° Northeast  Level Estimated
Thu 11:03:00 PM 31.8123 135.9647 42° Northeast  Level Estimated
Thu 11:04:00 PM 31.9054 136.0624 42° Northeast  Level Estimated
Thu 11:05:00 PM 31.9984 136.1604 42° Northeast  Level Estimated
Thu 11:06:00 PM 32.0913 136.2585 42° Northeast  Level Estimated
Thu 11:07:00 PM 32.1842 136.3569 42° Northeast  Level Estimated
Thu 11:08:00 PM 32.2770 136.4554 42° Northeast  Level Estimated
Thu 11:09:00 PM 32.3697 136.5542 42° Northeast  Level Estimated
Thu 11:10:00 PM 32.4623 136.6531 42° Northeast  Level Estimated
Thu 11:11:00 PM 32.5548 136.7523 42° Northeast  Level Estimated
Thu 11:12:00 PM 32.6473 136.8517 42° Northeast  Level Estimated
Thu 11:13:00 PM 32.7397 136.9512 42° Northeast  Level Estimated
Thu 11:14:00 PM 32.8320 137.0510 42° Northeast  Level Estimated
Thu 11:15:00 PM 32.9243 137.1510 42° Northeast  Level Estimated
Thu 11:16:00 PM 33.0164 137.2512 42° Northeast  Level Estimated
Thu 11:17:00 PM 33.1085 137.3516 42° Northeast  Level Estimated
Thu 11:18:00 PM 33.2005 137.4522 42° Northeast  Level Estimated
Thu 11:19:00 PM 33.2924 137.5530 43° Northeast  Level Estimated
Thu 11:20:00 PM 33.3842 137.6540 43° Northeast  Level Estimated
Thu 11:21:00 PM 33.4760 137.7553 43° Northeast  Level Estimated
Thu 11:22:00 PM 33.5676 137.8567 43° Northeast  Level Estimated
Thu 11:23:00 PM 33.6592 137.9584 43° Northeast  Level Estimated
Thu 11:24:00 PM 33.7507 138.0603 43° Northeast  Level Estimated
Thu 11:25:00 PM 33.8422 138.1624 43° Northeast  Level Estimated
Thu 11:26:00 PM 33.9335 138.2648 43° Northeast  Level Estimated
Thu 11:27:00 PM 34.0247 138.3673 43° Northeast  Level Estimated
Thu 11:28:00 PM 34.1159 138.4701 43° Northeast  Level Estimated
Thu 11:29:00 PM 34.2070 138.5731 43° Northeast  Level Estimated
Thu 11:30:00 PM 34.2980 138.6763 43° Northeast  Level Estimated
Thu 11:31:00 PM 34.3889 138.7797 43° Northeast  Level Estimated
Thu 11:32:00 PM 34.4797 138.8834 43° Northeast  Level Estimated
Thu 11:33:00 PM 34.5696 138.9863 43° Northeast  Level Estimated
Thu 11:34:00 PM 34.6594 139.0895 43° Northeast  Level Estimated
Thu 11:35:00 PM 34.7492 139.1929 43° Northeast  Level Estimated
Thu 11:36:00 PM 34.8388 139.2965 43° Northeast  Level Estimated
Thu 11:37:00 PM 34.9284 139.4004 44° Northeast  Level Estimated
Thu 11:38:00 PM 35.0178 139.5044 44° Northeast  Level Estimated
Thu 11:39:00 PM 35.1072 139.6087 44° Northeast  Level Estimated
Thu 11:40:00 PM 35.1965 139.7133 44° Northeast  Level Estimated
Thu 11:41:00 PM 35.2857 139.8180 44° Northeast  Level Estimated
Thu 11:42:00 PM 35.3749 139.9230 44° Northeast  Level Estimated
Thu 11:43:00 PM 35.4639 140.0282 44° Northeast  Level Estimated
Thu 11:44:00 PM 35.5528 140.1337 44° Northeast  Level Estimated
Thu 11:45:00 PM 35.6416 140.2394 44° Northeast  Level Estimated
Thu 11:46:00 PM 35.7304 140.3453 44° Northeast  Level Estimated
Thu 11:47:00 PM 35.7647 140.3864 44° Northeast  Level Estimated
Thu 11:48:00 PM 35.7647 140.3864 338° Northwest  Level Estimated
Thu 11:49:00 PM 35.7647 140.3864 338° Northwest  Level Estimated
Thu 11:50:00 PM 35.7647 140.3864 338° Northwest  Level Estimated
Thu 11:51:00 PM 35.7647 140.3864 338° Northwest  Level Estimated
Thu 11:52:00 PM 35.7647 140.3864 338° Northwest  Level Estimated
Thu 11:53:00 PM 35.7647 140.3864 338° Northwest  Level Estimated
Thu 11:54:00 PM 35.7647 140.3864 338° Northwest  Level Estimated
Thu 11:55:00 PM 35.7647 140.3864 338° Northwest  Level Estimated
Thu 11:56:00 PM 35.7647 140.3864 338° Northwest  Level Estimated
Thu 11:57:00 PM 35.7647 140.3864 338° Northwest  Level Estimated
Thu 11:58:00 PM 35.7647 140.3864 338° Northwest  Level Estimated
Thu 11:59:00 PM 35.7647 140.3864 338° Northwest  Level Estimated
Fri 12:00:00 AM 35.7647 140.3864 338° Northwest  Level Estimated
Fri 12:01:00 AM 35.7647 140.3864 338° Northwest  Level Estimated
Fri 12:02:00 AM 35.7647 140.3864 338° Northwest  Level Estimated
Fri 12:03:00 AM 35.7647 140.3864 338° Northwest  Level Estimated
Fri 12:04:00 AM 35.7647 140.3864 338° Northwest  Level Estimated
Fri 12:05:00 AM 35.7647 140.3864 338° Northwest  Level Estimated
Fri 12:06:00 AM 35.7647 140.3864 338° Northwest  Level Estimated
Fri 12:07:00 AM 35.7647 140.3864 338° Northwest  Level Estimated
Fri 12:08:00 AM 35.7647 140.3864 338° Northwest  Level Estimated
Fri 12:09:00 AM 35.7647 140.3864 338° Northwest  Level Estimated
Fri 12:10:00 AM 35.7647 140.3864 338° Northwest  Level Estimated
Fri 12:11:00 AM 35.7647 140.3864 338° Northwest  Level Estimated
Fri 12:12:00 AM 35.7647 140.3864 338° Northwest  Level Estimated
Fri 12:13:00 AM 35.7647 140.3864 338° Northwest  Level Estimated
Fri 12:14:00 AM 35.7647 140.3864 338° Northwest  Level Estimated
Fri 12:15:00 AM 35.7647 140.3864 338° Northwest  Level Estimated
Fri 12:16:00 AM 35.7647 140.3864 338° Northwest  Level Estimated
Fri 12:17:00 AM 35.7647 140.3864 338° Northwest  Level Estimated

Login

Don't have an account? Register now (free) for customized features, flight alerts, and more!